PWSweather.com
Personal Weather Stations
Station Observations
TEOWRC
Pt, CampotizzoroIT 51028

PtCampotizzoroIT 51028

Lat: 44.039426, Lon: 10.870519999999942

Elevation: 0

Station Type: Davis Vantage Vue

http://www.meteocampotizzoro.it/

Latest ConditionsUpdated 11:55:04 PM GMT+01:01 Wednesday, Aug 15, 2018
Currently Today's Max Today's Min Today's Average
Temperature 58.1°F14.5°C 71.9°F22.2°C 57.4°F14.1°C 64.6°F18.1°C
Dew Point 53.7°F12.1°C 61.1°F16.2°C 53.0°F11.7°C 56.7°F13.7°C
Winds Calm Calm 6.9 mph -11.1 kmh - - 1.6 mph 2.6 kmh
Wind Gusts -- 23.0 mph37.0 kmh - -
Humidity 85% 96% 62% 76%
Pressure 30.01 in1016.3 mb 30.02 in1016.6 mb 29.90 in1012.5 mb -
Hour Temp Dew Point Humidity Winds Wind Gusts Pressure Precip Precip Rate Daily Precip Total
11:55 PM 58.1°F14.5°C 53.7°F12.1°C 85% Calm Calm -- 30.01 in1016.3 mb - 0.00 in0.0 mm 0.03 in0.8 mm
11:50 PM 58.3°F14.6°C 53.8°F12.1°C 85% Calm Calm -- 30.01 in1016.3 mb - 0.00 in0.0 mm 0.03 in0.8 mm
11:45 PM 58.7°F14.8°C 54.2°F12.3°C 85% Calm Calm -- 30.01 in1016.3 mb - 0.00 in0.0 mm 0.03 in0.8 mm
11:40 PM 58.5°F14.7°C 53.7°F12.1°C 84% Calm Calm -- 30.02 in1016.6 mb - 0.00 in0.0 mm 0.03 in0.8 mm
11:35 PM 58.5°F14.7°C 54.0°F12.2°C 85% Calm Calm -- 30.02 in1016.6 mb - 0.00 in0.0 mm 0.03 in0.8 mm
11:30 PM 58.8°F14.9°C 54.3°F12.4°C 85% Calm Calm 1.2 mph1.9 kmh 30.01 in1016.3 mb - 0.00 in0.0 mm 0.03 in0.8 mm
11:25 PM 59.0°F15.0°C 54.2°F12.3°C 84% Calm Calm -- 30.02 in1016.6 mb - 0.00 in0.0 mm 0.03 in0.8 mm
11:20 PM 59.2°F15.1°C 54.4°F12.4°C 84% Calm Calm -- 30.02 in1016.6 mb - 0.00 in0.0 mm 0.03 in0.8 mm
11:15 PM 59.4°F15.2°C 53.9°F12.2°C 82% Calm Calm -- 30.02 in1016.6 mb - 0.00 in0.0 mm 0.03 in0.8 mm
11:10 PM 59.8°F15.4°C 54.2°F12.3°C 82% Calm Calm 1.2 mph1.9 kmh 30.02 in1016.6 mb - 0.00 in0.0 mm 0.03 in0.8 mm
11:05 PM 60.3°F15.7°C 54.1°F12.3°C 80% Calm Calm -- 30.02 in1016.6 mb - 0.00 in0.0 mm 0.03 in0.8 mm
11:00 PM 60.8°F16.0°C 54.3°F12.4°C 79% Calm Calm 2.3 mph3.7 kmh 30.01 in1016.3 mb - 0.00 in0.0 mm 0.03 in0.8 mm
10:55 PM 61.4°F16.3°C 54.5°F12.5°C 78% Calm Calm -- 30.02 in1016.6 mb - 0.00 in0.0 mm 0.02 in0.5 mm
10:50 PM 62.1°F16.7°C 54.4°F12.4°C 76% Calm Calm -- 30.02 in1016.6 mb - 0.00 in0.0 mm 0.02 in0.5 mm
10:45 PM 61.5°F16.4°C 53.5°F11.9°C 75% 2.3 mph SE3.7 kmh SE 3.5 mph5.6 kmh 30.02 in1016.6 mb - 0.00 in0.0 mm 0.02 in0.5 mm
10:40 PM 61.7°F16.5°C 54.4°F12.4°C 77% Calm Calm -- 30.02 in1016.6 mb - 0.00 in0.0 mm 0.02 in0.5 mm
10:35 PM 62.4°F16.9°C 54.4°F12.4°C 75% Calm Calm -- 30.01 in1016.3 mb - 0.00 in0.0 mm 0.02 in0.5 mm
10:30 PM 62.9°F17.2°C 54.5°F12.5°C 74% Calm Calm -- 30.02 in1016.6 mb - 0.00 in0.0 mm 0.02 in0.5 mm
10:25 PM 63.8°F17.7°C 54.6°F12.6°C 72% Calm Calm -- 30.02 in1016.6 mb - 0.00 in0.0 mm 0.02 in0.5 mm
10:20 PM 64.6°F18.1°C 54.6°F12.6°C 70% Calm Calm -- 30.02 in1016.6 mb - 0.00 in0.0 mm 0.02 in0.5 mm
10:15 PM 65.1°F18.4°C 54.7°F12.6°C 69% Calm Calm -- 30.02 in1016.6 mb - 0.00 in0.0 mm 0.02 in0.5 mm
10:10 PM 64.9°F18.3°C 54.1°F12.3°C 68% Calm Calm 1.2 mph1.9 kmh 30.01 in1016.3 mb - 0.00 in0.0 mm 0.02 in0.5 mm
10:05 PM 64.9°F18.3°C 53.6°F12.0°C 67% 1.2 mph S1.9 kmh S 1.2 mph1.9 kmh 30.01 in1016.3 mb - 0.00 in0.0 mm 0.02 in0.5 mm
10:00 PM 64.1°F17.8°C 54.1°F12.3°C 70% Calm Calm 3.5 mph5.6 kmh 30.01 in1016.3 mb - 0.00 in0.0 mm 0.02 in0.5 mm
09:55 PM 63.8°F17.7°C 53.4°F11.9°C 69% Calm Calm 1.2 mph1.9 kmh 30.01 in1016.3 mb - 0.00 in0.0 mm 0.02 in0.5 mm
09:50 PM 64.2°F17.9°C 54.2°F12.3°C 70% Calm Calm -- 30.01 in1016.3 mb - 0.00 in0.0 mm 0.02 in0.5 mm
09:45 PM 64.5°F18.1°C 54.1°F12.3°C 69% Calm Calm 1.2 mph1.9 kmh 30.00 in1015.9 mb - 0.00 in0.0 mm 0.02 in0.5 mm
09:40 PM 65.1°F18.4°C 54.3°F12.4°C 68% Calm Calm -- 30.00 in1015.9 mb - 0.00 in0.0 mm 0.02 in0.5 mm
09:35 PM 65.5°F18.6°C 53.9°F12.2°C 66% Calm Calm -- 30.00 in1015.9 mb - 0.00 in0.0 mm 0.02 in0.5 mm
09:30 PM 65.7°F18.7°C 53.6°F12.0°C 65% 1.2 mph SE1.9 kmh SE 4.6 mph7.4 kmh 30.00 in1015.9 mb - 0.00 in0.0 mm 0.02 in0.5 mm
09:25 PM 65.3°F18.5°C 53.3°F11.8°C 65% 1.2 mph ESE1.9 kmh ESE 2.3 mph3.7 kmh 30.00 in1015.9 mb - 0.00 in0.0 mm 0.02 in0.5 mm
09:20 PM 64.7°F18.2°C 53.5°F11.9°C 67% Calm Calm 3.5 mph5.6 kmh 30.00 in1015.9 mb - 0.00 in0.0 mm 0.02 in0.5 mm
09:15 PM 64.0°F17.8°C 53.2°F11.8°C 68% 2.3 mph ESE3.7 kmh ESE 8.1 mph13.0 kmh 30.00 in1015.9 mb - 0.00 in0.0 mm 0.02 in0.5 mm
09:10 PM 64.0°F17.8°C 54.0°F12.2°C 70% 1.2 mph SE1.9 kmh SE 2.3 mph3.7 kmh 30.00 in1015.9 mb - 0.00 in0.0 mm 0.02 in0.5 mm
09:05 PM 63.8°F17.7°C 53.0°F11.7°C 68% Calm Calm -- 30.00 in1015.9 mb - 0.00 in0.0 mm 0.02 in0.5 mm
09:00 PM 64.0°F17.8°C 54.0°F12.2°C 70% Calm Calm -- 30.00 in1015.9 mb - 0.00 in0.0 mm 0.02 in0.5 mm
08:55 PM 64.5°F18.1°C 54.1°F12.3°C 69% Calm Calm 1.2 mph1.9 kmh 30.00 in1015.9 mb - 0.00 in0.0 mm 0.02 in0.5 mm
08:50 PM 65.0°F18.3°C 53.7°F12.1°C 67% Calm Calm 1.2 mph1.9 kmh 30.00 in1015.9 mb - 0.00 in0.0 mm 0.02 in0.5 mm
08:45 PM 65.1°F18.4°C 53.9°F12.2°C 67% Calm Calm 1.2 mph1.9 kmh 30.00 in1015.9 mb - 0.00 in0.0 mm 0.02 in0.5 mm
08:40 PM 65.3°F18.5°C 54.1°F12.3°C 67% 2.3 mph SE3.7 kmh SE 3.5 mph5.6 kmh 30.00 in1015.9 mb - 0.00 in0.0 mm 0.02 in0.5 mm
08:35 PM 65.5°F18.6°C 54.2°F12.3°C 67% 2.3 mph NE3.7 kmh NE 3.5 mph5.6 kmh 29.99 in1015.6 mb - 0.00 in0.0 mm 0.02 in0.5 mm
08:30 PM 65.3°F18.5°C 54.1°F12.3°C 67% 2.3 mph SE3.7 kmh SE 3.5 mph5.6 kmh 29.99 in1015.6 mb - 0.00 in0.0 mm 0.02 in0.5 mm
08:25 PM 65.3°F18.5°C 53.6°F12.0°C 66% 2.3 mph SE3.7 kmh SE 3.5 mph5.6 kmh 29.99 in1015.6 mb - 0.00 in0.0 mm 0.02 in0.5 mm
08:20 PM 64.9°F18.3°C 54.1°F12.3°C 68% Calm Calm 1.2 mph1.9 kmh 29.99 in1015.6 mb - 0.00 in0.0 mm 0.02 in0.5 mm
08:15 PM 64.9°F18.3°C 54.5°F12.5°C 69% 1.2 mph SE1.9 kmh SE 2.3 mph3.7 kmh 29.99 in1015.6 mb - 0.00 in0.0 mm 0.02 in0.5 mm
08:10 PM 65.3°F18.5°C 54.5°F12.5°C 68% Calm Calm -- 29.99 in1015.6 mb - 0.00 in0.0 mm 0.02 in0.5 mm
08:05 PM 65.4°F18.6°C 55.0°F12.8°C 69% Calm Calm 2.3 mph3.7 kmh 29.98 in1015.2 mb - 0.00 in0.0 mm 0.02 in0.5 mm
08:00 PM 64.8°F18.2°C 54.4°F12.4°C 69% 1.2 mph NW1.9 kmh NW 8.1 mph13.0 kmh 29.98 in1015.2 mb - 0.00 in0.0 mm 0.02 in0.5 mm
07:55 PM 64.0°F17.8°C 55.2°F12.9°C 73% Calm Calm -- 29.98 in1015.2 mb - 0.00 in0.0 mm 0.02 in0.5 mm
07:50 PM 64.4°F18.0°C 55.6°F13.1°C 73% Calm Calm 1.2 mph1.9 kmh 29.98 in1015.2 mb - 0.00 in0.0 mm 0.02 in0.5 mm
07:45 PM 64.7°F18.2°C 55.5°F13.1°C 72% Calm Calm 1.2 mph1.9 kmh 29.98 in1015.2 mb - 0.00 in0.0 mm 0.02 in0.5 mm
07:40 PM 64.8°F18.2°C 56.0°F13.3°C 73% Calm Calm -- 29.98 in1015.2 mb - 0.00 in0.0 mm 0.02 in0.5 mm
07:35 PM 64.2°F17.9°C 56.1°F13.4°C 75% Calm Calm -- 29.97 in1014.9 mb - 0.00 in0.0 mm 0.02 in0.5 mm
07:30 PM 64.2°F17.9°C 56.8°F13.8°C 77% Calm Calm 2.3 mph3.7 kmh 29.98 in1015.2 mb - 0.00 in0.0 mm 0.02 in0.5 mm
07:25 PM 64.4°F18.0°C 56.7°F13.7°C 76% Calm Calm -- 29.97 in1014.9 mb - 0.00 in0.0 mm 0.02 in0.5 mm
07:20 PM 64.4°F18.0°C 56.7°F13.7°C 76% Calm Calm -- 29.97 in1014.9 mb - 0.00 in0.0 mm 0.02 in0.5 mm
07:15 PM 65.1°F18.4°C 57.7°F14.3°C 77% Calm Calm -- 29.98 in1015.2 mb - 0.00 in0.0 mm 0.02 in0.5 mm
07:10 PM 65.4°F18.6°C 56.9°F13.8°C 74% Calm Calm -- 29.97 in1014.9 mb - 0.00 in0.0 mm 0.02 in0.5 mm
07:05 PM 65.5°F18.6°C 57.0°F13.9°C 74% Calm Calm -- 29.97 in1014.9 mb - 0.00 in0.0 mm 0.02 in0.5 mm
07:00 PM 66.0°F18.9°C 57.5°F14.2°C 74% Calm Calm -- 29.97 in1014.9 mb - 0.00 in0.0 mm 0.02 in0.5 mm
06:55 PM 66.2°F19.0°C 56.9°F13.8°C 72% Calm Calm -- 29.97 in1014.9 mb - 0.00 in0.0 mm 0.02 in0.5 mm
06:50 PM 66.8°F19.3°C 57.8°F14.3°C 73% Calm Calm -- 29.97 in1014.9 mb - 0.00 in0.0 mm 0.02 in0.5 mm
06:45 PM 67.4°F19.7°C 57.6°F14.2°C 71% Calm Calm -- 29.97 in1014.9 mb - 0.00 in0.0 mm 0.02 in0.5 mm
06:40 PM 67.6°F19.8°C 57.5°F14.2°C 70% Calm Calm -- 29.97 in1014.9 mb - 0.00 in0.0 mm 0.02 in0.5 mm
06:35 PM 67.5°F19.7°C 57.0°F13.9°C 69% Calm Calm 2.3 mph3.7 kmh 29.97 in1014.9 mb - 0.00 in0.0 mm 0.02 in0.5 mm
06:30 PM 67.6°F19.8°C 57.5°F14.2°C 70% Calm Calm 2.3 mph3.7 kmh 29.97 in1014.9 mb - 0.00 in0.0 mm 0.02 in0.5 mm
06:25 PM 67.4°F19.7°C 56.8°F13.8°C 69% 1.2 mph ESE1.9 kmh ESE 1.2 mph1.9 kmh 29.97 in1014.9 mb - 0.00 in0.0 mm 0.02 in0.5 mm
06:20 PM 67.8°F19.9°C 58.0°F14.4°C 71% Calm Calm -- 29.97 in1014.9 mb - 0.00 in0.0 mm 0.02 in0.5 mm
06:15 PM 68.0°F20.0°C 57.8°F14.3°C 70% 1.2 mph ENE1.9 kmh ENE 3.5 mph5.6 kmh 29.97 in1014.9 mb - 0.00 in0.0 mm 0.02 in0.5 mm
06:10 PM 68.1°F20.1°C 57.1°F13.9°C 68% Calm Calm 3.5 mph5.6 kmh 29.97 in1014.9 mb - 0.00 in0.0 mm 0.02 in0.5 mm
06:05 PM 68.1°F20.1°C 57.9°F14.4°C 70% 1.2 mph WNW1.9 kmh WNW 4.6 mph7.4 kmh 29.96 in1014.6 mb - 0.00 in0.0 mm 0.02 in0.5 mm
06:00 PM 68.1°F20.1°C 57.5°F14.2°C 69% 1.2 mph SE1.9 kmh SE 4.6 mph7.4 kmh 29.96 in1014.6 mb - 0.00 in0.0 mm 0.02 in0.5 mm
05:55 PM 68.4°F20.2°C 58.2°F14.6°C 70% 1.2 mph ESE1.9 kmh ESE 1.2 mph1.9 kmh 29.96 in1014.6 mb - 0.00 in0.0 mm 0.02 in0.5 mm
05:50 PM 68.5°F20.3°C 57.1°F13.9°C 67% 1.2 mph SE1.9 kmh SE 2.3 mph3.7 kmh 29.96 in1014.6 mb - 0.00 in0.0 mm 0.02 in0.5 mm
05:45 PM 68.7°F20.4°C 57.3°F14.1°C 67% Calm Calm 1.2 mph1.9 kmh 29.96 in1014.6 mb - 0.00 in0.0 mm 0.02 in0.5 mm
05:40 PM 68.8°F20.4°C 57.4°F14.1°C 67% 3.5 mph SE5.6 kmh SE 13.8 mph22.2 kmh 29.96 in1014.6 mb - 0.00 in0.0 mm 0.02 in0.5 mm
05:35 PM 68.7°F20.4°C 57.7°F14.3°C 68% Calm Calm 3.5 mph5.6 kmh 29.96 in1014.6 mb - 0.00 in0.0 mm 0.02 in0.5 mm
05:30 PM 68.9°F20.5°C 57.9°F14.4°C 68% 1.2 mph S1.9 kmh S 3.5 mph5.6 kmh 29.96 in1014.6 mb - 0.00 in0.0 mm 0.02 in0.5 mm
05:25 PM 68.7°F20.4°C 57.3°F14.1°C 67% 3.5 mph SE5.6 kmh SE 6.9 mph11.1 kmh 29.96 in1014.6 mb - 0.00 in0.0 mm 0.02 in0.5 mm
05:20 PM 68.9°F20.5°C 57.9°F14.4°C 68% 2.3 mph SE3.7 kmh SE 3.5 mph5.6 kmh 29.96 in1014.6 mb - 0.00 in0.0 mm 0.02 in0.5 mm
05:15 PM 69.1°F20.6°C 58.5°F14.7°C 69% Calm Calm 1.2 mph1.9 kmh 29.96 in1014.6 mb - 0.00 in0.0 mm 0.02 in0.5 mm
05:10 PM 69.3°F20.7°C 58.3°F14.6°C 68% 1.2 mph SE1.9 kmh SE 1.2 mph1.9 kmh 29.97 in1014.9 mb - 0.00 in0.0 mm 0.02 in0.5 mm
05:05 PM 69.2°F20.7°C 57.8°F14.3°C 67% 5.8 mph ESE9.3 kmh ESE 11.5 mph18.5 kmh 29.97 in1014.9 mb - 0.00 in0.0 mm 0.02 in0.5 mm
05:00 PM 69.3°F20.7°C 57.9°F14.4°C 67% Calm Calm 1.2 mph1.9 kmh 29.96 in1014.6 mb - 0.00 in0.0 mm 0.02 in0.5 mm
04:55 PM 69.2°F20.7°C 57.8°F14.3°C 67% 1.2 mph SE1.9 kmh SE 3.5 mph5.6 kmh 29.96 in1014.6 mb - 0.00 in0.0 mm 0.02 in0.5 mm
04:50 PM 69.2°F20.7°C 58.2°F14.6°C 68% 1.2 mph E1.9 kmh E 3.5 mph5.6 kmh 29.96 in1014.6 mb - 0.00 in0.0 mm 0.02 in0.5 mm
04:45 PM 68.9°F20.5°C 58.7°F14.8°C 70% 1.2 mph SE1.9 kmh SE 3.5 mph5.6 kmh 29.96 in1014.6 mb - 0.00 in0.0 mm 0.02 in0.5 mm
04:40 PM 68.5°F20.3°C 58.3°F14.6°C 70% Calm Calm 3.5 mph5.6 kmh 29.96 in1014.6 mb - 0.00 in0.0 mm 0.02 in0.5 mm
04:35 PM 68.5°F20.3°C 58.7°F14.8°C 71% Calm Calm 1.2 mph1.9 kmh 29.96 in1014.6 mb - 0.00 in0.0 mm 0.02 in0.5 mm
04:30 PM 68.8°F20.4°C 58.2°F14.6°C 69% Calm Calm 1.2 mph1.9 kmh 29.97 in1014.9 mb - 0.00 in0.0 mm 0.02 in0.5 mm
04:25 PM 69.4°F20.8°C 59.2°F15.1°C 70% Calm Calm 1.2 mph1.9 kmh 29.97 in1014.9 mb - 0.00 in0.0 mm 0.02 in0.5 mm
04:20 PM 69.7°F20.9°C 58.3°F14.6°C 67% 5.8 mph SE9.3 kmh SE 11.5 mph18.5 kmh 29.97 in1014.9 mb - 0.00 in0.0 mm 0.02 in0.5 mm
04:15 PM 70.0°F21.1°C 58.5°F14.7°C 67% 3.5 mph SE5.6 kmh SE 4.6 mph7.4 kmh 29.97 in1014.9 mb - 0.00 in0.0 mm 0.02 in0.5 mm
04:10 PM 70.2°F21.2°C 58.3°F14.6°C 66% 3.5 mph SE5.6 kmh SE 3.5 mph5.6 kmh 29.97 in1014.9 mb - 0.00 in0.0 mm 0.02 in0.5 mm
04:05 PM 70.3°F21.3°C 59.2°F15.1°C 68% Calm Calm -- 29.98 in1015.2 mb - 0.00 in0.0 mm 0.02 in0.5 mm
04:00 PM 70.4°F21.3°C 58.5°F14.7°C 66% 3.5 mph SE5.6 kmh SE 8.1 mph13.0 kmh 29.98 in1015.2 mb - 0.00 in0.0 mm 0.02 in0.5 mm
03:55 PM 70.4°F21.3°C 58.9°F14.9°C 67% Calm Calm 2.3 mph3.7 kmh 29.98 in1015.2 mb - 0.00 in0.0 mm 0.02 in0.5 mm
03:50 PM 70.4°F21.3°C 58.5°F14.7°C 66% 4.6 mph SE7.4 kmh SE 13.8 mph22.2 kmh 29.97 in1014.9 mb - 0.00 in0.0 mm 0.02 in0.5 mm
03:45 PM 70.3°F21.3°C 58.8°F14.9°C 67% 1.2 mph SSW1.9 kmh SSW 4.6 mph7.4 kmh 29.98 in1015.2 mb - 0.00 in0.0 mm 0.02 in0.5 mm
03:40 PM 69.8°F21.0°C 58.7°F14.8°C 68% Calm Calm -- 29.98 in1015.2 mb - 0.00 in0.0 mm 0.02 in0.5 mm
03:35 PM 69.5°F20.8°C 58.9°F14.9°C 69% Calm Calm -- 29.98 in1015.2 mb - 0.00 in0.0 mm 0.02 in0.5 mm
03:30 PM 69.5°F20.8°C 57.6°F14.2°C 66% 1.2 mph E1.9 kmh E 3.5 mph5.6 kmh 29.98 in1015.2 mb - 0.00 in0.0 mm 0.02 in0.5 mm
03:25 PM 69.8°F21.0°C 58.3°F14.6°C 67% 1.2 mph E1.9 kmh E 2.3 mph3.7 kmh 29.98 in1015.2 mb - 0.00 in0.0 mm 0.02 in0.5 mm
03:20 PM 70.0°F21.1°C 60.2°F15.7°C 71% Calm Calm 2.3 mph3.7 kmh 29.98 in1015.2 mb - 0.00 in0.0 mm 0.02 in0.5 mm
03:15 PM 70.1°F21.2°C 59.0°F15.0°C 68% Calm Calm 1.2 mph1.9 kmh 29.98 in1015.2 mb - 0.00 in0.0 mm 0.02 in0.5 mm
03:10 PM 69.9°F21.1°C 59.3°F15.2°C 69% 1.2 mph W1.9 kmh W 2.3 mph3.7 kmh 29.98 in1015.2 mb - 0.00 in0.0 mm 0.02 in0.5 mm
03:05 PM 69.7°F20.9°C 58.3°F14.6°C 67% 1.2 mph ESE1.9 kmh ESE 2.3 mph3.7 kmh 29.98 in1015.2 mb - 0.00 in0.0 mm 0.02 in0.5 mm
03:00 PM 70.0°F21.1°C 59.0°F15.0°C 68% 1.2 mph NW1.9 kmh NW 3.5 mph5.6 kmh 29.98 in1015.2 mb - 0.00 in0.0 mm 0.02 in0.5 mm
02:55 PM 70.4°F21.3°C 58.9°F14.9°C 67% Calm Calm 1.2 mph1.9 kmh 29.98 in1015.2 mb - 0.00 in0.0 mm 0.02 in0.5 mm
02:50 PM 70.6°F21.4°C 58.3°F14.6°C 65% 1.2 mph ENE1.9 kmh ENE -- 29.98 in1015.2 mb - 0.00 in0.0 mm 0.02 in0.5 mm
02:45 PM 71.0°F21.7°C 59.5°F15.3°C 67% 1.2 mph E1.9 kmh E 1.2 mph1.9 kmh 29.98 in1015.2 mb - 0.00 in0.0 mm 0.02 in0.5 mm
02:40 PM 71.0°F21.7°C 59.9°F15.5°C 68% 3.5 mph NW5.6 kmh NW 4.6 mph7.4 kmh 29.98 in1015.2 mb - 0.00 in0.0 mm 0.02 in0.5 mm
02:35 PM 71.0°F21.7°C 59.5°F15.3°C 67% 1.2 mph S1.9 kmh S 3.5 mph5.6 kmh 29.98 in1015.2 mb - 0.00 in0.0 mm 0.02 in0.5 mm
02:30 PM 71.1°F21.7°C 59.6°F15.3°C 67% 1.2 mph SE1.9 kmh SE 3.5 mph5.6 kmh 29.98 in1015.2 mb - 0.00 in0.0 mm 0.02 in0.5 mm
02:25 PM 71.4°F21.9°C 57.7°F14.3°C 62% 4.6 mph ESE7.4 kmh ESE 5.8 mph9.3 kmh 29.98 in1015.2 mb - 0.00 in0.0 mm 0.02 in0.5 mm
02:20 PM 71.6°F22.0°C 60.4°F15.8°C 68% 1.2 mph SSW1.9 kmh SSW 3.5 mph5.6 kmh 29.98 in1015.2 mb - 0.00 in0.0 mm 0.02 in0.5 mm
02:15 PM 71.4°F21.9°C 60.7°F15.9°C 69% 2.3 mph WSW3.7 kmh WSW 3.5 mph5.6 kmh 29.98 in1015.2 mb - 0.00 in0.0 mm 0.02 in0.5 mm
02:10 PM 70.8°F21.6°C 59.3°F15.2°C 67% 1.2 mph SE1.9 kmh SE 1.2 mph1.9 kmh 29.99 in1015.6 mb - 0.00 in0.0 mm 0.02 in0.5 mm
02:05 PM 70.3°F21.3°C 58.4°F14.7°C 66% 1.2 mph SE1.9 kmh SE 1.2 mph1.9 kmh 29.99 in1015.6 mb - 0.00 in0.0 mm 0.02 in0.5 mm
02:00 PM 70.3°F21.3°C 60.1°F15.6°C 70% 1.2 mph SE1.9 kmh SE 2.3 mph3.7 kmh 29.99 in1015.6 mb - 0.00 in0.0 mm 0.02 in0.5 mm
01:55 PM 69.8°F21.0°C 59.6°F15.3°C 70% 1.2 mph SSE1.9 kmh SSE 3.5 mph5.6 kmh 29.99 in1015.6 mb - 0.00 in0.0 mm 0.02 in0.5 mm
01:50 PM 69.6°F20.9°C 58.6°F14.8°C 68% 1.2 mph SSE1.9 kmh SSE 9.2 mph14.8 kmh 29.99 in1015.6 mb - 0.00 in0.0 mm 0.02 in0.5 mm
01:45 PM 69.0°F20.6°C 59.9°F15.5°C 73% 1.2 mph ENE1.9 kmh ENE 3.5 mph5.6 kmh 29.99 in1015.6 mb - 0.00 in0.0 mm 0.02 in0.5 mm
01:40 PM 68.9°F20.5°C 57.5°F14.2°C 67% 4.6 mph S7.4 kmh S 5.8 mph9.3 kmh 29.99 in1015.6 mb - 0.00 in0.0 mm 0.02 in0.5 mm
01:35 PM 69.2°F20.7°C 58.6°F14.8°C 69% 2.3 mph SSE3.7 kmh SSE 5.8 mph9.3 kmh 29.99 in1015.6 mb - 0.00 in0.0 mm 0.02 in0.5 mm
01:30 PM 70.0°F21.1°C 59.7°F15.4°C 70% 2.3 mph WNW3.7 kmh WNW 5.8 mph9.3 kmh 29.99 in1015.6 mb - 0.00 in0.0 mm 0.02 in0.5 mm
01:25 PM 70.3°F21.3°C 59.2°F15.1°C 68% 4.6 mph ESE7.4 kmh ESE 12.7 mph20.4 kmh 29.99 in1015.6 mb - 0.00 in0.0 mm 0.02 in0.5 mm
01:20 PM 70.6°F21.4°C 58.7°F14.8°C 66% 1.2 mph ESE1.9 kmh ESE 1.2 mph1.9 kmh 29.98 in1015.2 mb - 0.00 in0.0 mm 0.02 in0.5 mm
01:15 PM 71.3°F21.8°C 59.4°F15.2°C 66% 2.3 mph SW3.7 kmh SW 8.1 mph13.0 kmh 29.98 in1015.2 mb - 0.00 in0.0 mm 0.02 in0.5 mm
01:10 PM 71.9°F22.2°C 60.3°F15.7°C 67% 2.3 mph W3.7 kmh W 3.5 mph5.6 kmh 29.98 in1015.2 mb - 0.00 in0.0 mm 0.02 in0.5 mm
01:05 PM 71.2°F21.8°C 60.5°F15.8°C 69% Calm Calm 3.5 mph5.6 kmh 29.98 in1015.2 mb - 0.00 in0.0 mm 0.02 in0.5 mm
01:00 PM 70.2°F21.2°C 60.0°F15.6°C 70% 1.2 mph SE1.9 kmh SE 3.5 mph5.6 kmh 29.98 in1015.2 mb - 0.00 in0.0 mm 0.02 in0.5 mm
12:55 PM 69.9°F21.1°C 60.0°F15.6°C 71% Calm Calm 3.5 mph5.6 kmh 29.98 in1015.2 mb - 0.00 in0.0 mm 0.02 in0.5 mm
12:50 PM 69.4°F20.8°C 60.0°F15.6°C 72% 1.2 mph E1.9 kmh E 3.5 mph5.6 kmh 29.98 in1015.2 mb - 0.00 in0.0 mm 0.02 in0.5 mm
12:45 PM 69.4°F20.8°C 61.1°F16.2°C 75% 2.3 mph N3.7 kmh N 8.1 mph13.0 kmh 29.99 in1015.6 mb - 0.00 in0.0 mm 0.02 in0.5 mm
12:40 PM 68.9°F20.5°C 59.5°F15.3°C 72% 2.3 mph SE3.7 kmh SE 4.6 mph7.4 kmh 29.98 in1015.2 mb - 0.00 in0.0 mm 0.02 in0.5 mm
12:35 PM 69.2°F20.7°C 59.7°F15.4°C 72% 1.2 mph ENE1.9 kmh ENE 3.5 mph5.6 kmh 29.98 in1015.2 mb - 0.00 in0.0 mm 0.02 in0.5 mm
12:30 PM 69.2°F20.7°C 59.0°F15.0°C 70% 1.2 mph E1.9 kmh E 2.3 mph3.7 kmh 29.98 in1015.2 mb - 0.00 in0.0 mm 0.02 in0.5 mm
12:25 PM 69.3°F20.7°C 58.7°F14.8°C 69% 1.2 mph SE1.9 kmh SE 2.3 mph3.7 kmh 29.98 in1015.2 mb - 0.00 in0.0 mm 0.02 in0.5 mm
12:20 PM 69.4°F20.8°C 59.1°F15.1°C 70% 2.3 mph S3.7 kmh S 5.8 mph9.3 kmh 29.98 in1015.2 mb - 0.00 in0.0 mm 0.02 in0.5 mm
12:15 PM 69.6°F20.9°C 59.7°F15.4°C 71% 3.5 mph SSE5.6 kmh SSE 9.2 mph14.8 kmh 29.98 in1015.2 mb - 0.00 in0.0 mm 0.02 in0.5 mm
12:10 PM 69.2°F20.7°C 59.0°F15.0°C 70% 2.3 mph E3.7 kmh E 3.5 mph5.6 kmh 29.98 in1015.2 mb - 0.00 in0.0 mm 0.02 in0.5 mm
12:05 PM 69.4°F20.8°C 59.5°F15.3°C 71% 2.3 mph NW3.7 kmh NW 5.8 mph9.3 kmh 29.98 in1015.2 mb - 0.00 in0.0 mm 0.02 in0.5 mm
12:00 PM 68.1°F20.1°C 59.1°F15.1°C 73% 2.3 mph N3.7 kmh N 3.5 mph5.6 kmh 29.98 in1015.2 mb - 0.00 in0.0 mm 0.02 in0.5 mm
11:55 AM 67.0°F19.4°C 58.4°F14.7°C 74% 3.5 mph NNE5.6 kmh NNE 4.6 mph7.4 kmh 29.97 in1014.9 mb - 0.00 in0.0 mm 0.02 in0.5 mm
11:50 AM 65.8°F18.8°C 56.9°F13.8°C 73% 2.3 mph SSE3.7 kmh SSE 3.5 mph5.6 kmh 29.97 in1014.9 mb - 0.00 in0.0 mm 0.02 in0.5 mm
11:45 AM 65.9°F18.8°C 57.4°F14.1°C 74% 2.3 mph S3.7 kmh S 1.2 mph1.9 kmh 29.98 in1015.2 mb - 0.00 in0.0 mm 0.02 in0.5 mm
11:40 AM 65.9°F18.8°C 57.7°F14.3°C 75% 1.2 mph ESE1.9 kmh ESE 4.6 mph7.4 kmh 29.97 in1014.9 mb - 0.00 in0.0 mm 0.02 in0.5 mm
11:35 AM 65.7°F18.7°C 57.6°F14.2°C 75% 2.3 mph NNE3.7 kmh NNE 3.5 mph5.6 kmh 29.97 in1014.9 mb - 0.00 in0.0 mm 0.02 in0.5 mm
11:30 AM 65.8°F18.8°C 57.7°F14.3°C 75% 1.2 mph SE1.9 kmh SE 8.1 mph13.0 kmh 29.96 in1014.6 mb - 0.00 in0.0 mm 0.02 in0.5 mm
11:25 AM 65.7°F18.7°C 57.6°F14.2°C 75% 4.6 mph NNE7.4 kmh NNE 6.9 mph11.1 kmh 29.97 in1014.9 mb - 0.00 in0.0 mm 0.02 in0.5 mm
11:20 AM 65.9°F18.8°C 58.5°F14.7°C 77% 2.3 mph E3.7 kmh E 3.5 mph5.6 kmh 29.97 in1014.9 mb - 0.00 in0.0 mm 0.02 in0.5 mm
11:15 AM 65.9°F18.8°C 58.5°F14.7°C 77% 1.2 mph E1.9 kmh E 4.6 mph7.4 kmh 29.97 in1014.9 mb - 0.00 in0.0 mm 0.02 in0.5 mm
11:10 AM 65.7°F18.7°C 57.9°F14.4°C 76% 1.2 mph E1.9 kmh E 3.5 mph5.6 kmh 29.96 in1014.6 mb - 0.00 in0.0 mm 0.02 in0.5 mm
11:05 AM 65.6°F18.7°C 57.8°F14.3°C 76% 1.2 mph W1.9 kmh W 3.5 mph5.6 kmh 29.97 in1014.9 mb - 0.00 in0.0 mm 0.02 in0.5 mm
11:00 AM 65.6°F18.7°C 57.8°F14.3°C 76% 2.3 mph NE3.7 kmh NE 3.5 mph5.6 kmh 29.97 in1014.9 mb - 0.00 in0.0 mm 0.02 in0.5 mm
10:55 AM 65.6°F18.7°C 57.4°F14.1°C 75% 1.2 mph ESE1.9 kmh ESE 2.3 mph3.7 kmh 29.97 in1014.9 mb - 0.00 in0.0 mm 0.02 in0.5 mm
10:50 AM 65.5°F18.6°C 57.0°F13.9°C 74% 2.3 mph SE3.7 kmh SE 2.3 mph3.7 kmh 29.97 in1014.9 mb - 0.00 in0.0 mm 0.02 in0.5 mm
10:45 AM 65.5°F18.6°C 56.6°F13.7°C 73% 5.8 mph SE9.3 kmh SE 4.6 mph7.4 kmh 29.97 in1014.9 mb - 0.00 in0.0 mm 0.02 in0.5 mm
10:40 AM 65.7°F18.7°C 56.8°F13.8°C 73% 4.6 mph ESE7.4 kmh ESE 10.4 mph16.7 kmh 29.96 in1014.6 mb - 0.00 in0.0 mm 0.02 in0.5 mm
10:35 AM 65.8°F18.8°C 56.5°F13.6°C 72% 3.5 mph SE5.6 kmh SE 15.0 mph24.1 kmh 29.96 in1014.6 mb - 0.00 in0.0 mm 0.02 in0.5 mm
10:30 AM 65.9°F18.8°C 56.6°F13.7°C 72% 3.5 mph ESE5.6 kmh ESE 9.2 mph14.8 kmh 29.96 in1014.6 mb - 0.00 in0.0 mm 0.02 in0.5 mm
10:25 AM 66.2°F19.0°C 56.5°F13.6°C 71% 5.8 mph WSW9.3 kmh WSW 10.4 mph16.7 kmh 29.95 in1014.2 mb - 0.00 in0.0 mm 0.02 in0.5 mm
10:20 AM 66.6°F19.2°C 56.9°F13.8°C 71% 4.6 mph E7.4 kmh E 6.9 mph11.1 kmh 29.96 in1014.6 mb - 0.00 in0.0 mm 0.02 in0.5 mm
10:15 AM 66.5°F19.2°C 57.6°F14.2°C 73% 2.3 mph NNE3.7 kmh NNE 5.8 mph9.3 kmh 29.95 in1014.2 mb - 0.00 in0.0 mm 0.02 in0.5 mm
10:10 AM 65.6°F18.7°C 56.7°F13.7°C 73% 4.6 mph SE7.4 kmh SE 3.5 mph5.6 kmh 29.95 in1014.2 mb - 0.00 in0.0 mm 0.02 in0.5 mm
10:05 AM 65.2°F18.4°C 57.4°F14.1°C 76% 2.3 mph S3.7 kmh S 3.5 mph5.6 kmh 29.95 in1014.2 mb - 0.00 in0.0 mm 0.02 in0.5 mm
10:00 AM 64.9°F18.3°C 56.4°F13.6°C 74% 4.6 mph S7.4 kmh S 8.1 mph13.0 kmh 29.95 in1014.2 mb - 0.00 in0.0 mm 0.02 in0.5 mm
09:55 AM 64.9°F18.3°C 56.4°F13.6°C 74% 4.6 mph SE7.4 kmh SE 19.6 mph31.5 kmh 29.95 in1014.2 mb - 0.00 in0.0 mm 0.02 in0.5 mm
09:50 AM 64.9°F18.3°C 56.4°F13.6°C 74% 4.6 mph ESE7.4 kmh ESE 4.6 mph7.4 kmh 29.95 in1014.2 mb - 0.00 in0.0 mm 0.02 in0.5 mm
09:45 AM 65.0°F18.3°C 56.5°F13.6°C 74% 5.8 mph SE9.3 kmh SE 20.7 mph33.3 kmh 29.95 in1014.2 mb - 0.00 in0.0 mm 0.02 in0.5 mm
09:40 AM 65.0°F18.3°C 56.1°F13.4°C 73% 6.9 mph SE11.1 kmh SE 11.5 mph18.5 kmh 29.95 in1014.2 mb - 0.00 in0.0 mm 0.02 in0.5 mm
09:35 AM 64.9°F18.3°C 56.0°F13.3°C 73% 1.2 mph ESE1.9 kmh ESE 5.8 mph9.3 kmh 29.95 in1014.2 mb - 0.00 in0.0 mm 0.02 in0.5 mm
09:30 AM 64.8°F18.2°C 55.6°F13.1°C 72% 2.3 mph N3.7 kmh N 3.5 mph5.6 kmh 29.95 in1014.2 mb - 0.00 in0.0 mm 0.02 in0.5 mm
09:25 AM 64.7°F18.2°C 55.8°F13.2°C 73% 1.2 mph ESE1.9 kmh ESE 2.3 mph3.7 kmh 29.95 in1014.2 mb - 0.00 in0.0 mm 0.02 in0.5 mm
09:15 AM 64.5°F18.1°C 56.0°F13.3°C 74% 2.3 mph SE3.7 kmh SE 8.1 mph13.0 kmh 29.95 in1014.2 mb - 0.00 in0.0 mm 0.02 in0.5 mm
09:10 AM 64.3°F17.9°C 55.5°F13.1°C 73% 2.3 mph S3.7 kmh S 10.4 mph16.7 kmh 29.95 in1014.2 mb - 0.00 in0.0 mm 0.02 in0.5 mm
09:05 AM 64.2°F17.9°C 56.1°F13.4°C 75% 3.5 mph SE5.6 kmh SE 6.9 mph11.1 kmh 29.95 in1014.2 mb - 0.00 in0.0 mm 0.02 in0.5 mm
09:00 AM 64.2°F17.9°C 56.8°F13.8°C 77% 2.3 mph W3.7 kmh W 3.5 mph5.6 kmh 29.95 in1014.2 mb - 0.00 in0.0 mm 0.02 in0.5 mm
08:55 AM 64.2°F17.9°C 56.8°F13.8°C 77% 1.2 mph ENE1.9 kmh ENE 5.8 mph9.3 kmh 29.95 in1014.2 mb - 0.00 in0.0 mm 0.02 in0.5 mm
08:50 AM 64.2°F17.9°C 56.1°F13.4°C 75% 6.9 mph SE11.1 kmh SE 17.3 mph27.8 kmh 29.95 in1014.2 mb - 0.00 in0.0 mm 0.02 in0.5 mm
08:45 AM 64.0°F17.8°C 55.9°F13.3°C 75% 3.5 mph S5.6 kmh S 5.8 mph9.3 kmh 29.95 in1014.2 mb - 0.00 in0.0 mm 0.02 in0.5 mm
08:40 AM 63.9°F17.7°C 56.5°F13.6°C 77% 3.5 mph SW5.6 kmh SW 4.6 mph7.4 kmh 29.95 in1014.2 mb - 0.00 in0.0 mm 0.02 in0.5 mm
08:35 AM 63.6°F17.6°C 56.6°F13.7°C 78% 5.8 mph NW9.3 kmh NW 6.9 mph11.1 kmh 29.95 in1014.2 mb - 0.00 in0.0 mm 0.02 in0.5 mm
08:30 AM 63.5°F17.5°C 56.5°F13.6°C 78% 2.3 mph WNW3.7 kmh WNW 4.6 mph7.4 kmh 29.94 in1013.9 mb - 0.00 in0.0 mm 0.02 in0.5 mm
08:25 AM 63.4°F17.4°C 56.5°F13.6°C 78% 1.2 mph NE1.9 kmh NE 3.5 mph5.6 kmh 29.93 in1013.5 mb - 0.00 in0.0 mm 0.02 in0.5 mm
08:20 AM 63.3°F17.4°C 56.3°F13.5°C 78% 1.2 mph ESE1.9 kmh ESE 1.2 mph1.9 kmh 29.94 in1013.9 mb - 0.00 in0.0 mm 0.02 in0.5 mm
08:15 AM 63.1°F17.3°C 56.1°F13.4°C 78% 2.3 mph S3.7 kmh S 3.5 mph5.6 kmh 29.93 in1013.5 mb - 0.00 in0.0 mm 0.02 in0.5 mm
08:10 AM 62.7°F17.1°C 55.7°F13.2°C 78% 3.5 mph SE5.6 kmh SE 13.8 mph22.2 kmh 29.93 in1013.5 mb - 0.00 in0.0 mm 0.02 in0.5 mm
08:05 AM 62.6°F17.0°C 55.6°F13.1°C 78% 3.5 mph E5.6 kmh E 4.6 mph7.4 kmh 29.94 in1013.9 mb - 0.00 in0.0 mm 0.02 in0.5 mm
08:00 AM 62.5°F16.9°C 55.6°F13.1°C 78% 3.5 mph SE5.6 kmh SE 17.3 mph27.8 kmh 29.93 in1013.5 mb - 0.00 in0.0 mm 0.02 in0.5 mm
07:55 AM 62.6°F17.0°C 55.6°F13.1°C 78% 2.3 mph SE3.7 kmh SE 6.9 mph11.1 kmh 29.93 in1013.5 mb - 0.00 in0.0 mm 0.02 in0.5 mm
07:50 AM 62.6°F17.0°C 55.3°F12.9°C 77% 4.6 mph SE7.4 kmh SE 9.2 mph14.8 kmh 29.94 in1013.9 mb - 0.00 in0.0 mm 0.02 in0.5 mm
07:45 AM 62.7°F17.1°C 55.4°F13.0°C 77% 1.2 mph SSW1.9 kmh SSW 6.9 mph11.1 kmh 29.93 in1013.5 mb - 0.00 in0.0 mm 0.02 in0.5 mm
07:40 AM 62.5°F16.9°C 55.2°F12.9°C 77% 3.5 mph SE5.6 kmh SE 4.6 mph7.4 kmh 29.93 in1013.5 mb - 0.00 in0.0 mm 0.02 in0.5 mm
07:35 AM 62.5°F16.9°C 55.2°F12.9°C 77% 3.5 mph ENE5.6 kmh ENE 5.8 mph9.3 kmh 29.93 in1013.5 mb - 0.00 in0.0 mm 0.02 in0.5 mm
07:30 AM 62.3°F16.8°C 55.0°F12.8°C 77% 3.5 mph SE5.6 kmh SE 9.2 mph14.8 kmh 29.93 in1013.5 mb - 0.00 in0.0 mm 0.02 in0.5 mm
07:25 AM 62.0°F16.7°C 55.8°F13.2°C 80% 2.3 mph NNW3.7 kmh NNW 3.5 mph5.6 kmh 29.93 in1013.5 mb - 0.00 in0.0 mm 0.02 in0.5 mm
07:20 AM 61.9°F16.6°C 56.4°F13.6°C 82% 3.5 mph NNW5.6 kmh NNW 10.4 mph16.7 kmh 29.94 in1013.9 mb - 0.00 in0.0 mm 0.02 in0.5 mm
07:15 AM 62.1°F16.7°C 56.8°F13.8°C 83% 2.3 mph S3.7 kmh S 4.6 mph7.4 kmh 29.94 in1013.9 mb - 0.00 in0.0 mm 0.02 in0.5 mm
07:10 AM 62.2°F16.8°C 56.6°F13.7°C 82% 3.5 mph ESE5.6 kmh ESE 8.1 mph13.0 kmh 29.94 in1013.9 mb - 0.00 in0.0 mm 0.02 in0.5 mm
07:05 AM 62.1°F16.7°C 56.5°F13.6°C 82% 4.6 mph SE7.4 kmh SE 2.3 mph3.7 kmh 29.93 in1013.5 mb - 0.00 in0.0 mm 0.02 in0.5 mm
07:00 AM 62.1°F16.7°C 56.2°F13.4°C 81% 2.3 mph SW3.7 kmh SW 3.5 mph5.6 kmh 29.93 in1013.5 mb - 0.00 in0.0 mm 0.02 in0.5 mm
06:55 AM 62.0°F16.7°C 56.5°F13.6°C 82% 1.2 mph NE1.9 kmh NE 3.5 mph5.6 kmh 29.93 in1013.5 mb - 0.00 in0.0 mm 0.02 in0.5 mm
06:50 AM 62.1°F16.7°C 56.9°F13.8°C 83% 1.2 mph E1.9 kmh E 4.6 mph7.4 kmh 29.92 in1013.2 mb - 0.00 in0.0 mm 0.02 in0.5 mm
06:45 AM 62.4°F16.9°C 56.8°F13.8°C 82% Calm Calm -- 29.92 in1013.2 mb - 0.00 in0.0 mm 0.02 in0.5 mm
06:40 AM 62.6°F17.0°C 56.7°F13.7°C 81% 6.9 mph ESE11.1 kmh ESE 10.4 mph16.7 kmh 29.92 in1013.2 mb - 0.00 in0.0 mm 0.02 in0.5 mm
06:35 AM 62.9°F17.2°C 56.6°F13.7°C 80% 3.5 mph SSE5.6 kmh SSE 4.6 mph7.4 kmh 29.92 in1013.2 mb - 0.00 in0.0 mm 0.02 in0.5 mm
06:30 AM 62.8°F17.1°C 56.5°F13.6°C 80% 2.3 mph SE3.7 kmh SE 8.1 mph13.0 kmh 29.91 in1012.9 mb - 0.00 in0.0 mm 0.02 in0.5 mm
06:25 AM 62.7°F17.1°C 56.5°F13.6°C 80% 3.5 mph SE5.6 kmh SE 6.9 mph11.1 kmh 29.92 in1013.2 mb - 0.00 in0.0 mm 0.02 in0.5 mm
06:20 AM 62.7°F17.1°C 56.8°F13.8°C 81% 2.3 mph E3.7 kmh E 9.2 mph14.8 kmh 29.92 in1013.2 mb - 0.00 in0.0 mm 0.02 in0.5 mm
06:15 AM 62.6°F17.0°C 56.3°F13.5°C 80% 3.5 mph SE5.6 kmh SE 5.8 mph9.3 kmh 29.91 in1012.9 mb - 0.00 in0.0 mm 0.02 in0.5 mm
06:10 AM 62.6°F17.0°C 56.7°F13.7°C 81% 5.8 mph S9.3 kmh S 11.5 mph18.5 kmh 29.91 in1012.9 mb - 0.00 in0.0 mm 0.02 in0.5 mm
06:05 AM 62.7°F17.1°C 56.4°F13.6°C 80% 2.3 mph SSE3.7 kmh SSE 12.7 mph20.4 kmh 29.92 in1013.2 mb - 0.00 in0.0 mm 0.02 in0.5 mm
06:00 AM 62.5°F16.9°C 56.2°F13.4°C 80% 6.9 mph E11.1 kmh E 5.8 mph9.3 kmh 29.91 in1012.9 mb - 0.00 in0.0 mm 0.02 in0.5 mm
05:55 AM 62.4°F16.9°C 56.1°F13.4°C 80% 1.2 mph SE1.9 kmh SE 3.5 mph5.6 kmh 29.91 in1012.9 mb - 0.00 in0.0 mm 0.02 in0.5 mm
05:50 AM 62.3°F16.8°C 56.4°F13.6°C 81% 2.3 mph ESE3.7 kmh ESE 3.5 mph5.6 kmh 29.91 in1012.9 mb - 0.00 in0.0 mm 0.02 in0.5 mm
05:45 AM 62.4°F16.9°C 56.5°F13.6°C 81% 2.3 mph NW3.7 kmh NW 4.6 mph7.4 kmh 29.91 in1012.9 mb - 0.00 in0.0 mm 0.02 in0.5 mm
05:40 AM 62.4°F16.9°C 56.1°F13.4°C 80% 3.5 mph SSE5.6 kmh SSE 10.4 mph16.7 kmh 29.91 in1012.9 mb - 0.00 in0.0 mm 0.02 in0.5 mm
05:35 AM 62.5°F16.9°C 56.3°F13.5°C 80% 1.2 mph E1.9 kmh E 3.5 mph5.6 kmh 29.91 in1012.9 mb - 0.00 in0.0 mm 0.02 in0.5 mm
05:30 AM 62.4°F16.9°C 56.1°F13.4°C 80% 2.3 mph ENE3.7 kmh ENE 5.8 mph9.3 kmh 29.91 in1012.9 mb - 0.00 in0.0 mm 0.02 in0.5 mm
05:25 AM 62.1°F16.7°C 55.9°F13.3°C 80% 3.5 mph SE5.6 kmh SE 3.5 mph5.6 kmh 29.91 in1012.9 mb - 0.00 in0.0 mm 0.02 in0.5 mm
05:20 AM 62.3°F16.8°C 56.0°F13.3°C 80% Calm Calm 2.3 mph3.7 kmh 29.91 in1012.9 mb - 0.00 in0.0 mm 0.02 in0.5 mm
05:15 AM 62.2°F16.8°C 55.6°F13.1°C 79% 6.9 mph ESE11.1 kmh ESE 6.9 mph11.1 kmh 29.91 in1012.9 mb - 0.00 in0.0 mm 0.02 in0.5 mm
05:10 AM 62.0°F16.7°C 55.8°F13.2°C 80% 2.3 mph E3.7 kmh E 4.6 mph7.4 kmh 29.91 in1012.9 mb - 0.00 in0.0 mm 0.02 in0.5 mm
05:05 AM 62.0°F16.7°C 55.8°F13.2°C 80% Calm Calm 1.2 mph1.9 kmh 29.91 in1012.9 mb - 0.00 in0.0 mm 0.02 in0.5 mm
05:00 AM 61.9°F16.6°C 55.6°F13.1°C 80% 1.2 mph NW1.9 kmh NW 2.3 mph3.7 kmh 29.91 in1012.9 mb - 0.00 in0.0 mm 0.02 in0.5 mm
04:55 AM 61.7°F16.5°C 55.5°F13.1°C 80% 2.3 mph SE3.7 kmh SE 10.4 mph16.7 kmh 29.90 in1012.5 mb - 0.00 in0.0 mm 0.02 in0.5 mm
04:50 AM 61.7°F16.5°C 55.8°F13.2°C 81% 2.3 mph W3.7 kmh W 5.8 mph9.3 kmh 29.91 in1012.9 mb - 0.00 in0.0 mm 0.02 in0.5 mm
04:45 AM 61.8°F16.6°C 55.5°F13.1°C 80% 3.5 mph NW5.6 kmh NW 6.9 mph11.1 kmh 29.91 in1012.9 mb - 0.00 in0.0 mm 0.02 in0.5 mm
04:40 AM 62.0°F16.7°C 55.8°F13.2°C 80% 2.3 mph SSW3.7 kmh SSW 3.5 mph5.6 kmh 29.91 in1012.9 mb - 0.00 in0.0 mm 0.02 in0.5 mm
04:35 AM 61.9°F16.6°C 55.7°F13.2°C 80% Calm Calm 2.3 mph3.7 kmh 29.92 in1013.2 mb - 0.00 in0.0 mm 0.02 in0.5 mm
04:30 AM 62.1°F16.7°C 55.9°F13.3°C 80% 1.2 mph SE1.9 kmh SE 6.9 mph11.1 kmh 29.92 in1013.2 mb - 0.00 in0.0 mm 0.02 in0.5 mm
04:25 AM 61.9°F16.6°C 55.7°F13.2°C 80% 2.3 mph SE3.7 kmh SE 4.6 mph7.4 kmh 29.92 in1013.2 mb - 0.00 in0.0 mm 0.02 in0.5 mm
04:20 AM 62.0°F16.7°C 55.8°F13.2°C 80% 1.2 mph SE1.9 kmh SE 2.3 mph3.7 kmh 29.92 in1013.2 mb - 0.00 in0.0 mm 0.02 in0.5 mm
04:15 AM 62.0°F16.7°C 55.8°F13.2°C 80% 2.3 mph ESE3.7 kmh ESE 4.6 mph7.4 kmh 29.92 in1013.2 mb - 0.00 in0.0 mm 0.02 in0.5 mm
04:10 AM 62.0°F16.7°C 55.8°F13.2°C 80% 4.6 mph SE7.4 kmh SE 9.2 mph14.8 kmh 29.92 in1013.2 mb - 0.00 in0.0 mm 0.02 in0.5 mm
04:05 AM 61.8°F16.6°C 55.9°F13.3°C 81% 4.6 mph E7.4 kmh E 8.1 mph13.0 kmh 29.92 in1013.2 mb - 0.00 in0.0 mm 0.02 in0.5 mm
04:00 AM 61.6°F16.4°C 56.0°F13.3°C 82% 4.6 mph ESE7.4 kmh ESE 23.0 mph37.0 kmh 29.92 in1013.2 mb - 0.00 in0.0 mm 0.02 in0.5 mm
03:55 AM 61.4°F16.3°C 56.5°F13.6°C 84% 1.2 mph SE1.9 kmh SE 12.7 mph20.4 kmh 29.92 in1013.2 mb - 0.00 in0.0 mm 0.02 in0.5 mm
03:50 AM 61.2°F16.2°C 56.3°F13.5°C 84% 1.2 mph SE1.9 kmh SE 6.9 mph11.1 kmh 29.93 in1013.5 mb - 0.00 in0.0 mm 0.02 in0.5 mm
03:45 AM 61.2°F16.2°C 56.7°F13.7°C 85% 2.3 mph S3.7 kmh S 8.1 mph13.0 kmh 29.93 in1013.5 mb - 0.00 in0.0 mm 0.02 in0.5 mm
03:40 AM 61.3°F16.3°C 56.4°F13.6°C 84% 2.3 mph SE3.7 kmh SE 3.5 mph5.6 kmh 29.93 in1013.5 mb - 0.00 in0.0 mm 0.02 in0.5 mm
03:35 AM 61.4°F16.3°C 56.8°F13.8°C 85% 1.2 mph E1.9 kmh E 2.3 mph3.7 kmh 29.93 in1013.5 mb - 0.00 in0.0 mm 0.02 in0.5 mm
03:30 AM 61.7°F16.5°C 56.8°F13.8°C 84% 1.2 mph S1.9 kmh S 2.3 mph3.7 kmh 29.92 in1013.2 mb - 0.01 in0.3 mm 0.02 in0.5 mm
03:25 AM 61.5°F16.4°C 56.6°F13.7°C 84% 1.2 mph E1.9 kmh E 2.3 mph3.7 kmh 29.92 in1013.2 mb - 0.00 in0.0 mm 0.01 in0.3 mm
03:20 AM 61.7°F16.5°C 56.8°F13.8°C 84% 1.2 mph SE1.9 kmh SE 5.8 mph9.3 kmh 29.92 in1013.2 mb - 0.00 in0.0 mm 0.01 in0.3 mm
03:15 AM 61.5°F16.4°C 56.6°F13.7°C 84% Calm Calm 3.5 mph5.6 kmh 29.92 in1013.2 mb - 0.00 in0.0 mm 0.01 in0.3 mm
03:10 AM 61.7°F16.5°C 56.8°F13.8°C 84% 1.2 mph SE1.9 kmh SE 4.6 mph7.4 kmh 29.91 in1012.9 mb - 0.00 in0.0 mm 0.01 in0.3 mm
03:05 AM 61.7°F16.5°C 56.8°F13.8°C 84% 2.3 mph ESE3.7 kmh ESE 12.7 mph20.4 kmh 29.92 in1013.2 mb - 0.00 in0.0 mm 0.01 in0.3 mm
03:00 AM 61.7°F16.5°C 56.5°F13.6°C 83% 4.6 mph SE7.4 kmh SE 11.5 mph18.5 kmh 29.91 in1012.9 mb - 0.00 in0.0 mm 0.01 in0.3 mm
02:55 AM 61.4°F16.3°C 56.2°F13.4°C 83% 2.3 mph SSE3.7 kmh SSE 3.5 mph5.6 kmh 29.91 in1012.9 mb - 0.00 in0.0 mm 0.01 in0.3 mm
02:50 AM 61.3°F16.3°C 56.4°F13.6°C 84% 1.2 mph NNW1.9 kmh NNW 4.6 mph7.4 kmh 29.91 in1012.9 mb - 0.00 in0.0 mm 0.01 in0.3 mm
02:45 AM 61.0°F16.1°C 56.4°F13.6°C 85% 3.5 mph E5.6 kmh E 4.6 mph7.4 kmh 29.91 in1012.9 mb - 0.00 in0.0 mm 0.01 in0.3 mm
02:40 AM 60.9°F16.1°C 56.4°F13.6°C 85% 2.3 mph SE3.7 kmh SE 3.5 mph5.6 kmh 29.91 in1012.9 mb - 0.00 in0.0 mm 0.01 in0.3 mm
02:30 AM 60.7°F15.9°C 56.2°F13.4°C 85% 2.3 mph SE3.7 kmh SE 16.1 mph25.9 kmh 29.91 in1012.9 mb - 0.00 in0.0 mm 0.01 in0.3 mm
02:25 AM 60.8°F16.0°C 56.5°F13.6°C 86% 1.2 mph ESE1.9 kmh ESE 3.5 mph5.6 kmh 29.91 in1012.9 mb - 0.00 in0.0 mm 0.01 in0.3 mm
02:20 AM 60.4°F15.8°C 56.5°F13.6°C 87% 1.2 mph SE1.9 kmh SE 5.8 mph9.3 kmh 29.91 in1012.9 mb - 0.00 in0.0 mm 0.01 in0.3 mm
02:15 AM 60.1°F15.6°C 55.9°F13.3°C 86% 1.2 mph ENE1.9 kmh ENE 4.6 mph7.4 kmh 29.91 in1012.9 mb - 0.00 in0.0 mm 0.01 in0.3 mm
02:10 AM 59.5°F15.3°C 55.9°F13.3°C 88% 1.2 mph SE1.9 kmh SE 2.3 mph3.7 kmh 29.91 in1012.9 mb - 0.00 in0.0 mm 0.01 in0.3 mm
02:05 AM 59.2°F15.1°C 55.9°F13.3°C 89% Calm Calm 2.3 mph3.7 kmh 29.91 in1012.9 mb - 0.00 in0.0 mm 0.01 in0.3 mm
02:00 AM 59.0°F15.0°C 56.1°F13.4°C 90% 1.2 mph SE1.9 kmh SE 3.5 mph5.6 kmh 29.91 in1012.9 mb - 0.00 in0.0 mm 0.01 in0.3 mm
01:55 AM 59.1°F15.1°C 56.1°F13.4°C 90% 1.2 mph SE1.9 kmh SE 2.3 mph3.7 kmh 29.91 in1012.9 mb - 0.00 in0.0 mm 0.01 in0.3 mm
01:50 AM 58.3°F14.6°C 56.3°F13.5°C 93% 2.3 mph ESE3.7 kmh ESE 8.1 mph13.0 kmh 29.91 in1012.9 mb - 0.00 in0.0 mm 0.01 in0.3 mm
01:45 AM 58.0°F14.4°C 56.0°F13.3°C 93% Calm Calm -- 29.91 in1012.9 mb - 0.00 in0.0 mm 0.01 in0.3 mm
01:40 AM 57.5°F14.2°C 56.3°F13.5°C 96% Calm Calm -- 29.92 in1013.2 mb - 0.00 in0.0 mm 0.01 in0.3 mm
01:35 AM 57.4°F14.1°C 56.3°F13.5°C 96% 1.2 mph ENE1.9 kmh ENE 5.8 mph9.3 kmh 29.92 in1013.2 mb - 0.00 in0.0 mm 0.01 in0.3 mm
01:30 AM 57.5°F14.2°C 56.4°F13.6°C 96% Calm Calm 1.2 mph1.9 kmh 29.92 in1013.2 mb - 0.00 in0.0 mm 0.01 in0.3 mm
01:25 AM 57.4°F14.1°C 56.0°F13.3°C 95% Calm Calm 2.3 mph3.7 kmh 29.92 in1013.2 mb - 0.00 in0.0 mm 0.01 in0.3 mm
01:20 AM 57.5°F14.2°C 56.1°F13.4°C 95% Calm Calm -- 29.92 in1013.2 mb - 0.00 in0.0 mm 0.01 in0.3 mm
01:15 AM 57.7°F14.3°C 56.0°F13.3°C 94% Calm Calm 1.2 mph1.9 kmh 29.91 in1012.9 mb - 0.00 in0.0 mm 0.01 in0.3 mm
01:10 AM 58.0°F14.4°C 56.2°F13.4°C 94% Calm Calm -- 29.91 in1012.9 mb - 0.00 in0.0 mm 0.01 in0.3 mm
01:05 AM 58.2°F14.6°C 56.2°F13.4°C 93% Calm Calm -- 29.91 in1012.9 mb - 0.00 in0.0 mm 0.01 in0.3 mm
01:00 AM 58.4°F14.7°C 56.4°F13.6°C 93% Calm Calm -- 29.91 in1012.9 mb - 0.00 in0.0 mm 0.01 in0.3 mm
12:55 AM 58.6°F14.8°C 56.2°F13.4°C 92% Calm Calm 1.2 mph1.9 kmh 29.91 in1012.9 mb - 0.01 in0.3 mm 0.01 in0.3 mm
12:50 AM 59.2°F15.1°C 56.3°F13.5°C 90% Calm Calm -- 29.91 in1012.9 mb - 0.01 in0.3 mm 0.01 in0.3 mm
12:45 AM 59.8°F15.4°C 56.6°F13.7°C 89% Calm Calm 1.2 mph1.9 kmh 29.91 in1012.9 mb - 0.00 in0.0 mm 0.00 in0.0 mm
12:40 AM 59.4°F15.2°C 55.9°F13.3°C 88% 1.2 mph SE1.9 kmh SE -- 29.92 in1013.2 mb - 0.00 in0.0 mm 0.00 in0.0 mm
12:35 AM 58.7°F14.8°C 56.7°F13.7°C 93% Calm Calm 3.5 mph5.6 kmh 29.92 in1013.2 mb - 0.00 in0.0 mm 0.00 in0.0 mm
12:30 AM 59.0°F15.0°C 57.0°F13.9°C 93% Calm Calm 1.2 mph1.9 kmh 29.92 in1013.2 mb - 0.00 in0.0 mm 0.00 in0.0 mm
12:25 AM 58.9°F14.9°C 56.9°F13.8°C 93% Calm Calm 1.2 mph1.9 kmh 29.93 in1013.5 mb - 0.00 in0.0 mm 0.00 in0.0 mm
12:20 AM 58.7°F14.8°C 57.0°F13.9°C 94% Calm Calm 2.3 mph3.7 kmh 29.93 in1013.5 mb - 0.00 in0.0 mm 0.00 in0.0 mm
12:15 AM 59.1°F15.1°C 57.1°F13.9°C 93% Calm Calm 1.2 mph1.9 kmh 29.93 in1013.5 mb - 0.00 in0.0 mm 0.00 in0.0 mm
12:10 AM 59.6°F15.3°C 57.2°F14.0°C 92% Calm Calm 2.3 mph3.7 kmh 29.94 in1013.9 mb - 0.00 in0.0 mm 0.00 in0.0 mm
12:05 AM 59.8°F15.4°C 57.5°F14.2°C 92% Calm Calm -- 29.95 in1014.2 mb - 0.00 in0.0 mm 0.00 in0.0 mm
12:00 AM 59.4°F15.2°C 57.0°F13.9°C 92% 2.3 mph S3.7 kmh S 4.6 mph7.4 kmh 29.95 in1014.2 mb - 0.00 in0.0 mm 0.00 in0.0 mm